Terminal Aerodrome Forecast
Issued by NWS

Home | Current Version | Previous Version | Text Only | Print | Product List | Glossary On
Versions: 1 2 3 4 5 6 7 8 9 10 11 12 13 14
000
FTAK31 PAJN 281100
TAFAYA
TAF
PAYA 281120Z 2812/2912 00000KT P6SM SKC
     FM282100 VRB03KT P6SM BKN150
     FM290300 00000KT P6SM VCSH BKN050 OVC100
      AMD LTD TO CLD VIS AND WIND 2901/2910=

USA.gov is the U.S. government's official web portal to all federal, state and local government web resources and services.